Southport, Connecticut
Current Conditions -  °F | °C
As of 9:52 AM on Tuesday 21 Oct 2014 (Local Time) from KBDR Reporting Station
Few Clouds Few Clouds  
Wind Chill: 60°   Ceiling: Unl
Heat Index: 60°   Visibility: 10mi
Dew Point: 51°   Wind: 8mph
Humidity: 72%   Direction: 50°NE
Pressure: 29.92"   Gusts: NA
Location:  41.14°N, 73.28°W
Report Text: KBDR 211352Z 05007KT 10SM FEW110 16/11 A2992 RMK AO2 SLP130 T01560106
Loading
Personal Weather Stations






























Interactive Weather Map
Tropical Storm Tracking
New forecast layout! Learn more

10-Day Weather Forecast

Advertisements
Track Severe Weather on mobile